sensor_id;sensor_type;location;lat;lon;timestamp;pressure;altitude;pressure_sealevel;temperature;humidity
68141;BME280;54941;52.220;104.306;2023-02-28T00:00:01;97719.59;;;-11.78;87.56
68141;BME280;54941;52.220;104.306;2023-02-28T00:02:30;97729.81;;;-11.57;87.36
68141;BME280;54941;52.220;104.306;2023-02-28T00:04:56;97719.56;;;-11.45;87.59
68141;BME280;54941;52.220;104.306;2023-02-28T00:07:22;97735.66;;;-11.25;87.12
68141;BME280;54941;52.220;104.306;2023-02-28T00:09:49;97728.00;;;-11.18;87.80
68141;BME280;54941;52.220;104.306;2023-02-28T00:12:15;97722.28;;;-11.20;86.96
68141;BME280;54941;52.220;104.306;2023-02-28T00:14:42;97733.72;;;-11.47;86.97
68141;BME280;54941;52.220;104.306;2023-02-28T00:17:08;97733.56;;;-11.41;86.71
68141;BME280;54941;52.220;104.306;2023-02-28T00:19:36;97727.91;;;-11.46;86.15
68141;BME280;54941;52.220;104.306;2023-02-28T00:22:02;97743.50;;;-11.41;87.20
68141;BME280;54941;52.220;104.306;2023-02-28T00:24:29;97738.34;;;-11.33;86.52
68141;BME280;54941;52.220;104.306;2023-02-28T00:26:55;97739.28;;;-11.37;87.10
68141;BME280;54941;52.220;104.306;2023-02-28T00:29:21;97742.94;;;-11.18;87.03
68141;BME280;54941;52.220;104.306;2023-02-28T00:31:48;97740.81;;;-11.01;86.77
68141;BME280;54941;52.220;104.306;2023-02-28T00:34:14;97744.22;;;-11.03;86.75
68141;BME280;54941;52.220;104.306;2023-02-28T00:36:42;97740.38;;;-10.84;86.95
68141;BME280;54941;52.220;104.306;2023-02-28T00:39:09;97746.34;;;-10.59;86.45
68141;BME280;54941;52.220;104.306;2023-02-28T00:41:35;97742.50;;;-10.41;84.77
68141;BME280;54941;52.220;104.306;2023-02-28T00:44:01;97744.25;;;-10.43;85.18
68141;BME280;54941;52.220;104.306;2023-02-28T00:46:28;97757.81;;;-10.53;84.53
68141;BME280;54941;52.220;104.306;2023-02-28T00:48:54;97766.97;;;-10.24;84.23
68141;BME280;54941;52.220;104.306;2023-02-28T00:51:21;97775.16;;;-10.21;84.27
68141;BME280;54941;52.220;104.306;2023-02-28T00:53:48;97771.47;;;-10.09;83.88
68141;BME280;54941;52.220;104.306;2023-02-28T00:56:15;97779.47;;;-10.00;83.45
68141;BME280;54941;52.220;104.306;2023-02-28T00:58:41;97782.56;;;-9.92;82.51
68141;BME280;54941;52.220;104.306;2023-02-28T01:01:08;97782.38;;;-9.86;82.32
68141;BME280;54941;52.220;104.306;2023-02-28T01:03:35;97792.03;;;-10.03;82.47
68141;BME280;54941;52.220;104.306;2023-02-28T01:06:01;97795.09;;;-9.65;81.23
68141;BME280;54941;52.220;104.306;2023-02-28T01:08:27;97798.91;;;-10.11;81.01
68141;BME280;54941;52.220;104.306;2023-02-28T01:10:55;97800.81;;;-10.17;82.14
68141;BME280;54941;52.220;104.306;2023-02-28T01:13:22;97794.63;;;-10.06;82.16
68141;BME280;54941;52.220;104.306;2023-02-28T01:15:50;97805.94;;;-9.94;82.78
68141;BME280;54941;52.220;104.306;2023-02-28T01:18:17;97803.97;;;-9.84;82.63
68141;BME280;54941;52.220;104.306;2023-02-28T01:20:43;97811.03;;;-9.71;82.87
68141;BME280;54941;52.220;104.306;2023-02-28T01:23:10;97813.25;;;-9.62;83.02
68141;BME280;54941;52.220;104.306;2023-02-28T01:25:36;97822.06;;;-9.50;82.56
68141;BME280;54941;52.220;104.306;2023-02-28T01:28:05;97811.34;;;-9.54;83.05
68141;BME280;54941;52.220;104.306;2023-02-28T01:30:31;97820.69;;;-9.60;82.87
68141;BME280;54941;52.220;104.306;2023-02-28T01:32:58;97829.34;;;-9.44;83.49
68141;BME280;54941;52.220;104.306;2023-02-28T01:35:24;97827.56;;;-9.41;83.65
68141;BME280;54941;52.220;104.306;2023-02-28T01:37:51;97834.22;;;-9.13;84.00
68141;BME280;54941;52.220;104.306;2023-02-28T01:40:17;97828.91;;;-9.04;83.19
68141;BME280;54941;52.220;104.306;2023-02-28T01:42:44;97831.97;;;-8.71;82.09
68141;BME280;54941;52.220;104.306;2023-02-28T01:45:23;97842.00;;;-8.98;81.83
68141;BME280;54941;52.220;104.306;2023-02-28T01:47:54;97855.56;;;-8.54;81.05
68141;BME280;54941;52.220;104.306;2023-02-28T01:50:25;97843.47;;;-8.66;80.25
68141;BME280;54941;52.220;104.306;2023-02-28T01:52:55;97845.81;;;-9.39;82.80
68141;BME280;54941;52.220;104.306;2023-02-28T01:55:24;97850.97;;;-9.17;83.12
68141;BME280;54941;52.220;104.306;2023-02-28T01:57:55;97853.47;;;-8.66;81.38
68141;BME280;54941;52.220;104.306;2023-02-28T02:00:25;97860.03;;;-8.88;81.68
68141;BME280;54941;52.220;104.306;2023-02-28T02:02:55;97864.69;;;-8.79;81.82
68141;BME280;54941;52.220;104.306;2023-02-28T02:05:24;97869.19;;;-8.89;82.46
68141;BME280;54941;52.220;104.306;2023-02-28T02:07:55;97868.69;;;-8.73;82.28
68141;BME280;54941;52.220;104.306;2023-02-28T02:10:26;97876.97;;;-8.47;81.73
68141;BME280;54941;52.220;104.306;2023-02-28T02:13:05;97881.59;;;-7.90;81.29
68141;BME280;54941;52.220;104.306;2023-02-28T02:16:01;97884.91;;;-7.66;79.02
68141;BME280;54941;52.220;104.306;2023-02-28T02:18:35;97877.47;;;-8.14;80.01
68141;BME280;54941;52.220;104.306;2023-02-28T02:24:29;97885.53;;;-8.06;81.14
68141;BME280;54941;52.220;104.306;2023-02-28T02:27:15;97873.50;;;-8.43;80.73
68141;BME280;54941;52.220;104.306;2023-02-28T02:35:55;97881.03;;;-7.98;81.99
68141;BME280;54941;52.220;104.306;2023-02-28T02:38:32;97895.06;;;-7.25;80.45
68141;BME280;54941;52.220;104.306;2023-02-28T02:41:07;97888.81;;;-7.82;80.31
68141;BME280;54941;52.220;104.306;2023-02-28T02:43:36;97883.16;;;-7.64;81.10
68141;BME280;54941;52.220;104.306;2023-02-28T02:46:10;97889.06;;;-7.88;80.02
68141;BME280;54941;52.220;104.306;2023-02-28T02:48:40;97894.38;;;-7.51;80.07
68141;BME280;54941;52.220;104.306;2023-02-28T02:51:09;97897.50;;;-7.46;78.98
68141;BME280;54941;52.220;104.306;2023-02-28T02:53:40;97900.13;;;-7.72;80.35
68141;BME280;54941;52.220;104.306;2023-02-28T02:56:08;97908.97;;;-6.97;79.37
68141;BME280;54941;52.220;104.306;2023-02-28T02:58:38;97909.13;;;-6.79;77.52
68141;BME280;54941;52.220;104.306;2023-02-28T03:01:07;97904.75;;;-6.74;76.97
68141;BME280;54941;52.220;104.306;2023-02-28T03:03:35;97912.22;;;-6.12;75.86
68141;BME280;54941;52.220;104.306;2023-02-28T03:06:03;97904.31;;;-5.84;74.67
68141;BME280;54941;52.220;104.306;2023-02-28T03:08:37;97899.88;;;-5.79;73.37
68141;BME280;54941;52.220;104.306;2023-02-28T03:11:05;97902.94;;;-5.35;73.65
68141;BME280;54941;52.220;104.306;2023-02-28T03:13:47;97900.41;;;-5.35;71.89
68141;BME280;54941;52.220;104.306;2023-02-28T03:16:31;97899.69;;;-5.37;72.19
68141;BME280;54941;52.220;104.306;2023-02-28T03:19:05;97895.53;;;-5.76;73.55
68141;BME280;54941;52.220;104.306;2023-02-28T03:21:35;97903.50;;;-5.48;73.25
68141;BME280;54941;52.220;104.306;2023-02-28T03:24:09;97898.75;;;-5.91;72.92
68141;BME280;54941;52.220;104.306;2023-02-28T03:26:39;97906.94;;;-5.50;73.28
68141;BME280;54941;52.220;104.306;2023-02-28T03:29:12;97906.84;;;-5.47;72.56
68141;BME280;54941;52.220;104.306;2023-02-28T03:31:43;97907.97;;;-5.35;73.13
68141;BME280;54941;52.220;104.306;2023-02-28T03:34:13;97908.69;;;-5.15;72.85
68141;BME280;54941;52.220;104.306;2023-02-28T03:36:47;97907.41;;;-4.87;71.70
68141;BME280;54941;52.220;104.306;2023-02-28T03:39:18;97913.22;;;-5.04;71.32
68141;BME280;54941;52.220;104.306;2023-02-28T03:41:49;97908.78;;;-4.63;71.57
68141;BME280;54941;52.220;104.306;2023-02-28T03:44:22;97914.88;;;-4.00;70.74
68141;BME280;54941;52.220;104.306;2023-02-28T03:46:56;97911.19;;;-3.62;69.08
68141;BME280;54941;52.220;104.306;2023-02-28T03:49:28;97902.84;;;-3.31;66.46
68141;BME280;54941;52.220;104.306;2023-02-28T03:51:58;97907.97;;;-3.17;65.60
68141;BME280;54941;52.220;104.306;2023-02-28T03:54:30;97909.44;;;-2.67;67.45
68141;BME280;54941;52.220;104.306;2023-02-28T03:57:02;97913.59;;;-3.12;64.94
68141;BME280;54941;52.220;104.306;2023-02-28T03:59:34;97911.66;;;-1.75;62.30
68141;BME280;54941;52.220;104.306;2023-02-28T04:02:03;97895.78;;;-1.91;61.77
68141;BME280;54941;52.220;104.306;2023-02-28T04:04:30;97910.94;;;-2.79;62.76
68141;BME280;54941;52.220;104.306;2023-02-28T04:07:01;97907.63;;;-2.65;63.80
68141;BME280;54941;52.220;104.306;2023-02-28T04:09:29;97904.78;;;-2.59;63.09
68141;BME280;54941;52.220;104.306;2023-02-28T04:11:56;97906.91;;;-2.97;65.58
68141;BME280;54941;52.220;104.306;2023-02-28T04:14:22;97907.75;;;-2.23;63.65
68141;BME280;54941;52.220;104.306;2023-02-28T04:16:49;97908.44;;;-2.35;64.47
68141;BME280;54941;52.220;104.306;2023-02-28T04:19:16;97906.47;;;-2.30;65.16
68141;BME280;54941;52.220;104.306;2023-02-28T04:21:44;97911.09;;;-2.66;64.62
68141;BME280;54941;52.220;104.306;2023-02-28T04:24:12;97907.50;;;-2.18;63.45
68141;BME280;54941;52.220;104.306;2023-02-28T04:26:41;97905.28;;;-2.68;65.20
68141;BME280;54941;52.220;104.306;2023-02-28T04:29:08;97911.75;;;-1.90;63.66
68141;BME280;54941;52.220;104.306;2023-02-28T04:31:35;97907.75;;;-1.66;61.07
68141;BME280;54941;52.220;104.306;2023-02-28T04:34:01;97912.19;;;-1.01;58.09
68141;BME280;54941;52.220;104.306;2023-02-28T04:36:28;97907.06;;;-0.86;58.46
68141;BME280;54941;52.220;104.306;2023-02-28T04:38:55;97910.88;;;0.11;55.37
68141;BME280;54941;52.220;104.306;2023-02-28T04:41:22;97900.31;;;0.17;55.60
68141;BME280;54941;52.220;104.306;2023-02-28T04:43:51;97904.97;;;-0.03;55.70
68141;BME280;54941;52.220;104.306;2023-02-28T04:46:17;97894.81;;;0.48;53.07
68141;BME280;54941;52.220;104.306;2023-02-28T04:48:44;97898.88;;;1.45;50.81
68141;BME280;54941;52.220;104.306;2023-02-28T04:51:12;97900.50;;;1.92;48.34
68141;BME280;54941;52.220;104.306;2023-02-28T04:53:39;97892.41;;;-1.49;55.56
68141;BME280;54941;52.220;104.306;2023-02-28T04:56:07;97896.72;;;-0.44;53.79
68141;BME280;54941;52.220;104.306;2023-02-28T04:58:34;97897.72;;;-1.39;54.36
68141;BME280;54941;52.220;104.306;2023-02-28T05:01:14;97893.66;;;0.03;53.18
68141;BME280;54941;52.220;104.306;2023-02-28T05:03:42;97895.28;;;-1.00;53.40
68141;BME280;54941;52.220;104.306;2023-02-28T05:06:08;97890.28;;;-0.23;52.55
68141;BME280;54941;52.220;104.306;2023-02-28T05:08:35;97883.75;;;-3.19;60.26
68141;BME280;54941;52.220;104.306;2023-02-28T05:11:01;97896.97;;;-3.00;63.46
68141;BME280;54941;52.220;104.306;2023-02-28T05:13:28;97891.72;;;-3.11;63.54
68141;BME280;54941;52.220;104.306;2023-02-28T05:15:55;97886.56;;;-3.72;63.45
68141;BME280;54941;52.220;104.306;2023-02-28T05:18:23;97879.88;;;-2.95;61.98
68141;BME280;54941;52.220;104.306;2023-02-28T05:20:49;97878.09;;;-2.63;61.46
68141;BME280;54941;52.220;104.306;2023-02-28T05:23:17;97886.59;;;-2.80;63.37
68141;BME280;54941;52.220;104.306;2023-02-28T05:25:43;97872.13;;;-3.53;64.64
68141;BME280;54941;52.220;104.306;2023-02-28T05:28:10;97877.06;;;-3.05;64.55
68141;BME280;54941;52.220;104.306;2023-02-28T05:30:36;97869.25;;;-1.56;59.89
68141;BME280;54941;52.220;104.306;2023-02-28T05:33:03;97864.25;;;-0.89;58.25
68141;BME280;54941;52.220;104.306;2023-02-28T05:35:31;97862.94;;;-1.36;56.97
68141;BME280;54941;52.220;104.306;2023-02-28T05:37:57;97858.59;;;-2.46;58.08
68141;BME280;54941;52.220;104.306;2023-02-28T05:40:24;97857.00;;;-2.18;59.04
68141;BME280;54941;52.220;104.306;2023-02-28T05:42:50;97852.47;;;-1.99;57.22
68141;BME280;54941;52.220;104.306;2023-02-28T05:45:17;97860.81;;;-3.62;63.43
68141;BME280;54941;52.220;104.306;2023-02-28T05:47:43;97860.88;;;-3.01;63.45
68141;BME280;54941;52.220;104.306;2023-02-28T05:50:10;97854.88;;;-2.40;61.51
68141;BME280;54941;52.220;104.306;2023-02-28T05:52:38;97853.00;;;-2.80;60.45
68141;BME280;54941;52.220;104.306;2023-02-28T05:55:05;97850.09;;;-1.60;59.98
68141;BME280;54941;52.220;104.306;2023-02-28T05:57:32;97851.44;;;-1.54;57.89
68141;BME280;54941;52.220;104.306;2023-02-28T05:59:58;97851.13;;;-2.33;60.09
68141;BME280;54941;52.220;104.306;2023-02-28T06:02:24;97843.09;;;-1.97;59.73
68141;BME280;54941;52.220;104.306;2023-02-28T06:04:51;97838.09;;;-0.25;55.43
68141;BME280;54941;52.220;104.306;2023-02-28T06:07:17;97834.75;;;-1.03;56.61
68141;BME280;54941;52.220;104.306;2023-02-28T06:09:45;97832.44;;;-1.74;57.20
68141;BME280;54941;52.220;104.306;2023-02-28T06:12:11;97824.88;;;-2.16;58.16
68141;BME280;54941;52.220;104.306;2023-02-28T06:14:38;97822.72;;;-1.94;58.22
68141;BME280;54941;52.220;104.306;2023-02-28T06:17:04;97826.16;;;-1.54;57.46
68141;BME280;54941;52.220;104.306;2023-02-28T06:19:31;97822.91;;;-2.11;57.53
68141;BME280;54941;52.220;104.306;2023-02-28T06:21:57;97812.34;;;-2.46;59.92
68141;BME280;54941;52.220;104.306;2023-02-28T06:24:25;97816.94;;;-1.82;57.96
68141;BME280;54941;52.220;104.306;2023-02-28T06:26:53;97813.34;;;-2.20;56.14
68141;BME280;54941;52.220;104.306;2023-02-28T06:29:19;97816.59;;;-2.04;56.55
68141;BME280;54941;52.220;104.306;2023-02-28T06:31:46;97807.56;;;-1.26;54.42
68141;BME280;54941;52.220;104.306;2023-02-28T06:34:13;97805.94;;;-2.09;56.79
68141;BME280;54941;52.220;104.306;2023-02-28T06:36:40;97806.44;;;-0.95;55.34
68141;BME280;54941;52.220;104.306;2023-02-28T06:39:07;97801.97;;;-2.13;57.29
68141;BME280;54941;52.220;104.306;2023-02-28T06:41:33;97800.59;;;-3.05;60.78
68141;BME280;54941;52.220;104.306;2023-02-28T06:44:02;97797.63;;;-2.68;58.89
68141;BME280;54941;52.220;104.306;2023-02-28T06:46:28;97787.84;;;-3.18;59.43
68141;BME280;54941;52.220;104.306;2023-02-28T06:48:54;97791.31;;;-2.75;60.08
68141;BME280;54941;52.220;104.306;2023-02-28T06:51:21;97795.28;;;-2.71;58.75
68141;BME280;54941;52.220;104.306;2023-02-28T06:53:47;97795.69;;;-2.92;58.55
68141;BME280;54941;52.220;104.306;2023-02-28T06:56:15;97797.78;;;-3.15;60.63
68141;BME280;54941;52.220;104.306;2023-02-28T06:58:45;97796.00;;;-3.28;59.03
68141;BME280;54941;52.220;104.306;2023-02-28T07:01:13;97787.72;;;-2.14;58.56
68141;BME280;54941;52.220;104.306;2023-02-28T07:03:40;97792.75;;;-2.71;58.06
68141;BME280;54941;52.220;104.306;2023-02-28T07:06:06;97784.69;;;-2.91;59.23
68141;BME280;54941;52.220;104.306;2023-02-28T07:08:33;97781.00;;;-3.30;59.80
68141;BME280;54941;52.220;104.306;2023-02-28T07:10:59;97781.75;;;-3.14;60.12
68141;BME280;54941;52.220;104.306;2023-02-28T07:13:26;97777.06;;;-3.20;58.63
68141;BME280;54941;52.220;104.306;2023-02-28T07:15:56;97777.41;;;-3.26;58.72
68141;BME280;54941;52.220;104.306;2023-02-28T07:18:26;97782.41;;;-3.71;60.24
68141;BME280;54941;52.220;104.306;2023-02-28T07:20:52;97772.09;;;-3.51;59.37
68141;BME280;54941;52.220;104.306;2023-02-28T07:23:19;97771.69;;;-3.90;57.97
68141;BME280;54941;52.220;104.306;2023-02-28T07:25:45;97769.47;;;-3.65;58.91
68141;BME280;54941;52.220;104.306;2023-02-28T07:28:12;97766.56;;;-4.05;58.60
68141;BME280;54941;52.220;104.306;2023-02-28T07:30:39;97765.59;;;-3.86;59.32
68141;BME280;54941;52.220;104.306;2023-02-28T07:33:05;97764.72;;;-3.85;59.01
68141;BME280;54941;52.220;104.306;2023-02-28T07:35:34;97762.44;;;-3.74;59.24
68141;BME280;54941;52.220;104.306;2023-02-28T07:38:00;97751.63;;;-4.08;60.48
68141;BME280;54941;52.220;104.306;2023-02-28T07:40:27;97750.09;;;-4.26;60.43
68141;BME280;54941;52.220;104.306;2023-02-28T07:42:53;97759.44;;;-3.97;60.68
68141;BME280;54941;52.220;104.306;2023-02-28T07:45:19;97755.13;;;-4.10;59.52
68141;BME280;54941;52.220;104.306;2023-02-28T07:47:46;97758.38;;;-4.57;60.79
68141;BME280;54941;52.220;104.306;2023-02-28T07:50:15;97750.53;;;-4.35;60.37
68141;BME280;54941;52.220;104.306;2023-02-28T07:52:43;97756.19;;;-4.63;61.32
68141;BME280;54941;52.220;104.306;2023-02-28T07:55:10;97746.13;;;-4.47;61.80
68141;BME280;54941;52.220;104.306;2023-02-28T07:57:37;97745.53;;;-4.19;60.91
68141;BME280;54941;52.220;104.306;2023-02-28T08:00:04;97754.50;;;-4.47;61.21
68141;BME280;54941;52.220;104.306;2023-02-28T08:02:31;97752.69;;;-4.12;60.99
68141;BME280;54941;52.220;104.306;2023-02-28T08:04:58;97743.50;;;-4.61;61.17
68141;BME280;54941;52.220;104.306;2023-02-28T08:07:25;97742.91;;;-4.49;60.27
68141;BME280;54941;52.220;104.306;2023-02-28T08:09:53;97740.75;;;-4.08;59.65
68141;BME280;54941;52.220;104.306;2023-02-28T08:12:20;97731.97;;;-4.32;59.98
68141;BME280;54941;52.220;104.306;2023-02-28T08:14:46;97738.84;;;-4.52;61.09
68141;BME280;54941;52.220;104.306;2023-02-28T08:17:13;97735.34;;;-4.82;61.95
68141;BME280;54941;52.220;104.306;2023-02-28T08:19:39;97736.84;;;-4.95;62.49
68141;BME280;54941;52.220;104.306;2023-02-28T08:22:05;97733.75;;;-5.00;62.05
68141;BME280;54941;52.220;104.306;2023-02-28T08:24:32;97734.84;;;-4.88;62.08
68141;BME280;54941;52.220;104.306;2023-02-28T08:27:02;97728.91;;;-4.70;62.06
68141;BME280;54941;52.220;104.306;2023-02-28T08:29:28;97723.59;;;-4.49;61.14
68141;BME280;54941;52.220;104.306;2023-02-28T08:31:54;97725.84;;;-4.60;60.94
68141;BME280;54941;52.220;104.306;2023-02-28T08:34:21;97730.91;;;-4.13;60.62
68141;BME280;54941;52.220;104.306;2023-02-28T08:36:47;97725.06;;;-4.13;60.84
68141;BME280;54941;52.220;104.306;2023-02-28T08:39:13;97722.00;;;-4.18;60.01
68141;BME280;54941;52.220;104.306;2023-02-28T08:41:41;97721.91;;;-4.32;60.07
68141;BME280;54941;52.220;104.306;2023-02-28T08:44:09;97711.25;;;-4.53;61.77
68141;BME280;54941;52.220;104.306;2023-02-28T08:46:35;97708.91;;;-4.56;60.55
68141;BME280;54941;52.220;104.306;2023-02-28T08:49:02;97703.97;;;-4.11;59.29
68141;BME280;54941;52.220;104.306;2023-02-28T08:51:29;97710.03;;;-4.46;60.79
68141;BME280;54941;52.220;104.306;2023-02-28T08:53:58;97708.28;;;-4.13;60.63
68141;BME280;54941;52.220;104.306;2023-02-28T08:56:25;97708.53;;;-4.33;60.91
68141;BME280;54941;52.220;104.306;2023-02-28T08:58:54;97701.84;;;-4.34;60.94
68141;BME280;54941;52.220;104.306;2023-02-28T09:01:24;97702.09;;;-4.23;60.84
68141;BME280;54941;52.220;104.306;2023-02-28T09:03:51;97699.25;;;-4.48;60.99
68141;BME280;54941;52.220;104.306;2023-02-28T09:06:19;97706.00;;;-4.17;60.84
68141;BME280;54941;52.220;104.306;2023-02-28T09:08:45;97702.19;;;-4.40;60.14
68141;BME280;54941;52.220;104.306;2023-02-28T09:11:12;97696.91;;;-4.35;60.62
68141;BME280;54941;52.220;104.306;2023-02-28T09:13:39;97692.16;;;-4.57;61.08
68141;BME280;54941;52.220;104.306;2023-02-28T09:16:07;97684.22;;;-4.65;60.63
68141;BME280;54941;52.220;104.306;2023-02-28T09:18:36;97695.44;;;-4.39;60.36
68141;BME280;54941;52.220;104.306;2023-02-28T09:21:03;97683.41;;;-4.66;60.40
68141;BME280;54941;52.220;104.306;2023-02-28T09:23:30;97685.50;;;-4.74;61.61
68141;BME280;54941;52.220;104.306;2023-02-28T09:25:56;97686.97;;;-4.70;61.82
68141;BME280;54941;52.220;104.306;2023-02-28T09:28:23;97692.50;;;-4.63;61.33
68141;BME280;54941;52.220;104.306;2023-02-28T09:30:51;97679.41;;;-4.85;61.39
68141;BME280;54941;52.220;104.306;2023-02-28T09:33:18;97682.13;;;-4.57;60.44
68141;BME280;54941;52.220;104.306;2023-02-28T09:35:46;97683.03;;;-4.58;59.99
68141;BME280;54941;52.220;104.306;2023-02-28T09:38:12;97680.97;;;-4.67;60.40
68141;BME280;54941;52.220;104.306;2023-02-28T09:40:45;97679.16;;;-4.81;61.19
68141;BME280;54941;52.220;104.306;2023-02-28T09:43:14;97676.66;;;-4.81;61.05
68141;BME280;54941;52.220;104.306;2023-02-28T09:45:44;97679.72;;;-4.92;61.09
68141;BME280;54941;52.220;104.306;2023-02-28T09:48:14;97673.66;;;-5.05;61.24
68141;BME280;54941;52.220;104.306;2023-02-28T09:50:46;97670.34;;;-5.05;61.89
68141;BME280;54941;52.220;104.306;2023-02-28T09:53:19;97669.03;;;-5.12;62.14
68141;BME280;54941;52.220;104.306;2023-02-28T09:55:50;97669.13;;;-5.31;62.47
68141;BME280;54941;52.220;104.306;2023-02-28T09:58:20;97657.97;;;-5.43;62.42
68141;BME280;54941;52.220;104.306;2023-02-28T10:00:56;97668.47;;;-5.34;63.33
68141;BME280;54941;52.220;104.306;2023-02-28T10:03:29;97662.91;;;-5.24;62.77
68141;BME280;54941;52.220;104.306;2023-02-28T10:06:03;97663.88;;;-5.26;62.89
68141;BME280;54941;52.220;104.306;2023-02-28T10:08:36;97657.75;;;-5.38;63.05
68141;BME280;54941;52.220;104.306;2023-02-28T10:11:07;97654.06;;;-5.48;63.21
68141;BME280;54941;52.220;104.306;2023-02-28T10:13:35;97659.69;;;-5.60;64.39
68141;BME280;54941;52.220;104.306;2023-02-28T10:16:06;97658.94;;;-5.45;63.76
68141;BME280;54941;52.220;104.306;2023-02-28T10:18:41;97660.81;;;-5.66;63.30
68141;BME280;54941;52.220;104.306;2023-02-28T10:21:17;97659.16;;;-5.67;63.14
68141;BME280;54941;52.220;104.306;2023-02-28T10:23:46;97655.38;;;-5.75;63.43
68141;BME280;54941;52.220;104.306;2023-02-28T10:26:16;97651.63;;;-6.01;64.47
68141;BME280;54941;52.220;104.306;2023-02-28T10:28:43;97658.69;;;-6.45;65.61
68141;BME280;54941;52.220;104.306;2023-02-28T10:31:11;97653.81;;;-6.67;67.03
68141;BME280;54941;52.220;104.306;2023-02-28T10:33:40;97650.56;;;-6.87;67.96
68141;BME280;54941;52.220;104.306;2023-02-28T10:36:12;97660.66;;;-6.70;67.62
68141;BME280;54941;52.220;104.306;2023-02-28T10:38:40;97655.13;;;-6.97;68.12
68141;BME280;54941;52.220;104.306;2023-02-28T10:41:08;97647.94;;;-7.05;68.99
68141;BME280;54941;52.220;104.306;2023-02-28T10:43:35;97649.97;;;-7.13;68.82
68141;BME280;54941;52.220;104.306;2023-02-28T10:46:04;97645.31;;;-7.02;68.87
68141;BME280;54941;52.220;104.306;2023-02-28T10:48:37;97652.22;;;-7.07;68.76
68141;BME280;54941;52.220;104.306;2023-02-28T10:51:07;97645.44;;;-7.05;68.95
68141;BME280;54941;52.220;104.306;2023-02-28T10:53:45;97637.34;;;-7.10;69.35
68141;BME280;54941;52.220;104.306;2023-02-28T10:56:16;97646.25;;;-7.43;70.75
68141;BME280;54941;52.220;104.306;2023-02-28T10:58:53;97646.09;;;-8.01;72.01
68141;BME280;54941;52.220;104.306;2023-02-28T11:01:21;97645.59;;;-7.89;72.00
68141;BME280;54941;52.220;104.306;2023-02-28T11:03:48;97652.00;;;-8.45;73.40
68141;BME280;54941;52.220;104.306;2023-02-28T11:06:17;97651.38;;;-8.73;74.48
68141;BME280;54941;52.220;104.306;2023-02-28T11:08:49;97640.31;;;-8.90;75.66
68141;BME280;54941;52.220;104.306;2023-02-28T11:11:16;97634.72;;;-8.73;75.59
68141;BME280;54941;52.220;104.306;2023-02-28T11:13:45;97634.16;;;-8.16;75.03
68141;BME280;54941;52.220;104.306;2023-02-28T11:16:13;97630.75;;;-8.78;74.88
68141;BME280;54941;52.220;104.306;2023-02-28T11:18:43;97625.25;;;-9.10;75.84
68141;BME280;54941;52.220;104.306;2023-02-28T11:21:18;97626.63;;;-9.26;76.98
68141;BME280;54941;52.220;104.306;2023-02-28T11:23:48;97621.34;;;-9.42;77.82
68141;BME280;54941;52.220;104.306;2023-02-28T11:26:16;97623.16;;;-9.70;78.93
68141;BME280;54941;52.220;104.306;2023-02-28T11:29:17;97623.97;;;-9.69;79.30
68141;BME280;54941;52.220;104.306;2023-02-28T11:31:43;97618.03;;;-9.42;79.37
68141;BME280;54941;52.220;104.306;2023-02-28T11:34:24;97612.13;;;-9.89;79.35
68141;BME280;54941;52.220;104.306;2023-02-28T11:36:51;97608.19;;;-9.70;79.98
68141;BME280;54941;52.220;104.306;2023-02-28T11:39:20;97604.56;;;-9.61;79.37
68141;BME280;54941;52.220;104.306;2023-02-28T11:42:35;97610.72;;;-9.71;79.35
68141;BME280;54941;52.220;104.306;2023-02-28T11:45:35;97610.66;;;-10.19;80.65
68141;BME280;54941;52.220;104.306;2023-02-28T11:48:08;97601.56;;;-9.96;80.84
68141;BME280;54941;52.220;104.306;2023-02-28T11:50:58;97602.66;;;-10.04;81.00
68141;BME280;54941;52.220;104.306;2023-02-28T11:53:40;97596.88;;;-9.80;81.10
68141;BME280;54941;52.220;104.306;2023-02-28T11:56:16;97594.34;;;-10.05;80.44
68141;BME280;54941;52.220;104.306;2023-02-28T11:58:53;97601.25;;;-10.38;80.08
68141;BME280;54941;52.220;104.306;2023-02-28T12:01:35;97601.47;;;-10.45;80.78
68141;BME280;54941;52.220;104.306;2023-02-28T12:04:15;97601.34;;;-10.41;81.39
68141;BME280;54941;52.220;104.306;2023-02-28T12:06:47;97601.81;;;-10.28;82.69
68141;BME280;54941;52.220;104.306;2023-02-28T12:09:34;97606.59;;;-10.22;81.95
68141;BME280;54941;52.220;104.306;2023-02-28T12:12:15;97599.94;;;-10.21;82.19
68141;BME280;54941;52.220;104.306;2023-02-28T12:15:04;97597.09;;;-10.37;82.21
68141;BME280;54941;52.220;104.306;2023-02-28T12:17:46;97597.91;;;-10.37;82.59
68141;BME280;54941;52.220;104.306;2023-02-28T12:20:24;97587.84;;;-10.33;82.57
68141;BME280;54941;52.220;104.306;2023-02-28T12:22:58;97589.34;;;-10.56;82.13
68141;BME280;54941;52.220;104.306;2023-02-28T12:25:48;97591.25;;;-10.64;82.16
68141;BME280;54941;52.220;104.306;2023-02-28T12:28:17;97594.88;;;-10.74;82.24
68141;BME280;54941;52.220;104.306;2023-02-28T12:30:50;97591.13;;;-10.59;82.52
68141;BME280;54941;52.220;104.306;2023-02-28T12:33:22;97581.56;;;-10.45;82.47
68141;BME280;54941;52.220;104.306;2023-02-28T12:35:52;97590.75;;;-10.47;82.98
68141;BME280;54941;52.220;104.306;2023-02-28T12:38:22;97577.97;;;-10.63;82.16
68141;BME280;54941;52.220;104.306;2023-02-28T12:40:51;97573.03;;;-10.64;83.52
68141;BME280;54941;52.220;104.306;2023-02-28T12:43:21;97571.78;;;-10.51;83.42
68141;BME280;54941;52.220;104.306;2023-02-28T12:45:49;97567.00;;;-10.57;82.05
68141;BME280;54941;52.220;104.306;2023-02-28T12:48:24;97564.00;;;-10.95;81.15
68141;BME280;54941;52.220;104.306;2023-02-28T12:50:52;97562.28;;;-11.22;80.95
68141;BME280;54941;52.220;104.306;2023-02-28T12:53:25;97563.31;;;-11.29;82.46
68141;BME280;54941;52.220;104.306;2023-02-28T12:56:03;97558.41;;;-11.03;82.59
68141;BME280;54941;52.220;104.306;2023-02-28T12:58:37;97550.47;;;-10.60;82.89